sensor_id;sensor_type;location;lat;lon;timestamp;pressure;altitude;pressure_sealevel;temperature;humidity
63582;BME280;49727;51.078;17.066;2023-06-19T00:06:29;100074.91;;;16.08;65.98
63582;BME280;49727;51.078;17.066;2023-06-19T00:21:29;100062.56;;;15.87;66.58
63582;BME280;49727;51.078;17.066;2023-06-19T00:36:29;100057.16;;;15.67;67.28
63582;BME280;49727;51.078;17.066;2023-06-19T00:51:30;100052.19;;;15.50;68.29
63582;BME280;49727;51.078;17.066;2023-06-19T01:06:46;100042.69;;;15.34;68.65
63582;BME280;49727;51.078;17.066;2023-06-19T01:21:49;100042.66;;;15.21;69.19
63582;BME280;49727;51.078;17.066;2023-06-19T01:36:50;100043.69;;;15.06;70.16
63582;BME280;49727;51.078;17.066;2023-06-19T01:51:52;100049.22;;;14.92;70.29
63582;BME280;49727;51.078;17.066;2023-06-19T02:06:52;100052.06;;;14.77;71.14
63582;BME280;49727;51.078;17.066;2023-06-19T02:21:52;100051.19;;;14.63;71.50
63582;BME280;49727;51.078;17.066;2023-06-19T02:36:53;100049.22;;;14.50;71.98
63582;BME280;49727;51.078;17.066;2023-06-19T02:51:53;100060.97;;;14.42;72.27
63582;BME280;49727;51.078;17.066;2023-06-19T03:06:53;100063.41;;;14.37;72.62
63582;BME280;49727;51.078;17.066;2023-06-19T03:21:54;100071.03;;;14.40;73.14
63582;BME280;49727;51.078;17.066;2023-06-19T03:36:54;100064.25;;;14.44;73.42
63582;BME280;49727;51.078;17.066;2023-06-19T03:51:55;100052.44;;;14.67;73.35
63582;BME280;49727;51.078;17.066;2023-06-19T04:06:55;100054.25;;;15.48;73.17
63582;BME280;49727;51.078;17.066;2023-06-19T04:21:56;100066.00;;;16.21;72.70
63582;BME280;49727;51.078;17.066;2023-06-19T04:36:56;100066.59;;;16.95;72.14
63582;BME280;49727;51.078;17.066;2023-06-19T04:51:58;100072.16;;;17.32;70.41
63582;BME280;49727;51.078;17.066;2023-06-19T05:06:59;100075.75;;;17.51;69.66
63582;BME280;49727;51.078;17.066;2023-06-19T05:21:59;100082.94;;;17.57;68.58
63582;BME280;49727;51.078;17.066;2023-06-19T05:37:00;100109.88;;;18.33;68.88
63582;BME280;49727;51.078;17.066;2023-06-19T05:52:03;100112.44;;;19.87;67.47
63582;BME280;49727;51.078;17.066;2023-06-19T06:07:04;100121.56;;;21.09;64.01
63582;BME280;49727;51.078;17.066;2023-06-19T06:22:05;100139.09;;;22.15;60.92
63582;BME280;49727;51.078;17.066;2023-06-19T06:37:07;100145.34;;;22.94;58.03
63582;BME280;49727;51.078;17.066;2023-06-19T06:52:07;100171.06;;;23.58;55.76
63582;BME280;49727;51.078;17.066;2023-06-19T07:07:07;100169.38;;;23.85;53.65
63582;BME280;49727;51.078;17.066;2023-06-19T07:22:08;100157.91;;;24.53;52.71
63582;BME280;49727;51.078;17.066;2023-06-19T07:37:09;100159.78;;;25.05;50.44
63582;BME280;49727;51.078;17.066;2023-06-19T07:52:09;100168.94;;;25.62;48.28
63582;BME280;49727;51.078;17.066;2023-06-19T08:07:10;100155.25;;;26.50;46.12
63582;BME280;49727;51.078;17.066;2023-06-19T08:22:10;100155.97;;;27.36;43.19
63582;BME280;49727;51.078;17.066;2023-06-19T08:37:11;100154.13;;;27.66;42.22
63582;BME280;49727;51.078;17.066;2023-06-19T08:52:11;100137.06;;;28.87;41.31
63582;BME280;49727;51.078;17.066;2023-06-19T09:07:13;100136.88;;;29.41;38.82
63582;BME280;49727;51.078;17.066;2023-06-19T09:22:17;100131.16;;;30.36;36.32
63582;BME280;49727;51.078;17.066;2023-06-19T09:37:23;100130.34;;;32.27;31.61
63582;BME280;49727;51.078;17.066;2023-06-19T09:52:24;100118.13;;;33.26;28.35
63582;BME280;49727;51.078;17.066;2023-06-19T10:07:26;100101.66;;;32.77;27.38
63582;BME280;49727;51.078;17.066;2023-06-19T10:22:32;100100.91;;;32.05;27.37
63582;BME280;49727;51.078;17.066;2023-06-19T10:37:33;100096.66;;;32.88;26.13
63582;BME280;49727;51.078;17.066;2023-06-19T10:52:33;100083.56;;;34.32;24.67
63582;BME280;49727;51.078;17.066;2023-06-19T11:07:34;100076.06;;;35.47;23.58
63582;BME280;49727;51.078;17.066;2023-06-19T11:22:36;100078.66;;;35.31;22.75
63582;BME280;49727;51.078;17.066;2023-06-19T11:37:41;100073.69;;;35.03;21.85
63582;BME280;49727;51.078;17.066;2023-06-19T11:52:43;100060.31;;;33.30;23.14
63582;BME280;49727;51.078;17.066;2023-06-19T12:07:44;100056.88;;;33.06;23.17
63582;BME280;49727;51.078;17.066;2023-06-19T12:22:45;100043.09;;;34.79;22.47
63582;BME280;49727;51.078;17.066;2023-06-19T12:37:45;100043.81;;;33.68;24.06
63582;BME280;49727;51.078;17.066;2023-06-19T12:52:46;100027.53;;;32.76;24.96
63582;BME280;49727;51.078;17.066;2023-06-19T13:07:46;100032.22;;;33.01;25.79
63582;BME280;49727;51.078;17.066;2023-06-19T13:22:46;100027.53;;;31.78;26.86
63582;BME280;49727;51.078;17.066;2023-06-19T13:37:47;100024.47;;;31.02;28.70
63582;BME280;49727;51.078;17.066;2023-06-19T13:52:47;100021.16;;;31.60;28.32
63582;BME280;49727;51.078;17.066;2023-06-19T14:07:47;100004.31;;;31.61;28.71
63582;BME280;49727;51.078;17.066;2023-06-19T14:22:48;100002.66;;;31.92;28.90
63582;BME280;49727;51.078;17.066;2023-06-19T14:37:48;100017.81;;;30.44;30.07
63582;BME280;49727;51.078;17.066;2023-06-19T14:52:48;100008.13;;;30.19;30.97
63582;BME280;49727;51.078;17.066;2023-06-19T15:07:49;100016.78;;;29.98;31.30
63582;BME280;49727;51.078;17.066;2023-06-19T15:22:50;100010.09;;;29.58;32.11
63582;BME280;49727;51.078;17.066;2023-06-19T15:37:50;100010.47;;;29.18;32.27
63582;BME280;49727;51.078;17.066;2023-06-19T15:52:50;99997.25;;;29.06;32.73
63582;BME280;49727;51.078;17.066;2023-06-19T16:07:51;99996.44;;;28.86;33.37
63582;BME280;49727;51.078;17.066;2023-06-19T16:22:52;99981.91;;;28.86;33.49
63582;BME280;49727;51.078;17.066;2023-06-19T16:37:52;99971.91;;;28.38;34.75
63582;BME280;49727;51.078;17.066;2023-06-19T16:52:53;99971.22;;;28.27;35.25
63582;BME280;49727;51.078;17.066;2023-06-19T17:07:54;99977.22;;;28.29;35.56
63582;BME280;49727;51.078;17.066;2023-06-19T17:22:54;99967.19;;;28.19;35.86
63582;BME280;49727;51.078;17.066;2023-06-19T17:37:55;99966.50;;;28.09;35.51
63582;BME280;49727;51.078;17.066;2023-06-19T17:52:55;99951.13;;;27.35;36.65
63582;BME280;49727;51.078;17.066;2023-06-19T18:07:55;99965.91;;;26.60;38.48
63582;BME280;49727;51.078;17.066;2023-06-19T18:22:56;99970.84;;;25.92;40.02
63582;BME280;49727;51.078;17.066;2023-06-19T18:37:56;99976.41;;;25.30;41.27
63582;BME280;49727;51.078;17.066;2023-06-19T18:52:56;99979.06;;;24.74;43.11
63582;BME280;49727;51.078;17.066;2023-06-19T19:07:56;99992.78;;;24.21;44.46
63582;BME280;49727;51.078;17.066;2023-06-19T19:22:57;99993.88;;;23.77;45.88
63582;BME280;49727;51.078;17.066;2023-06-19T19:37:57;100005.06;;;23.38;47.38
63582;BME280;49727;51.078;17.066;2023-06-19T19:52:58;100023.47;;;23.03;48.49
63582;BME280;49727;51.078;17.066;2023-06-19T20:07:59;100028.69;;;23.37;49.81
63582;BME280;49727;51.078;17.066;2023-06-19T20:22:59;100037.84;;;23.58;50.17
63582;BME280;49727;51.078;17.066;2023-06-19T20:38:00;100043.94;;;23.76;50.00
63582;BME280;49727;51.078;17.066;2023-06-19T20:53:00;100054.25;;;23.41;50.39
63582;BME280;49727;51.078;17.066;2023-06-19T21:08:00;100051.25;;;22.83;51.85
63582;BME280;49727;51.078;17.066;2023-06-19T21:23:00;100057.59;;;22.67;52.75
63582;BME280;49727;51.078;17.066;2023-06-19T21:38:01;100066.00;;;22.65;53.10
63582;BME280;49727;51.078;17.066;2023-06-19T21:53:02;100080.88;;;22.40;53.64
63582;BME280;49727;51.078;17.066;2023-06-19T22:08:02;100077.41;;;21.72;54.93
63582;BME280;49727;51.078;17.066;2023-06-19T22:23:03;100077.16;;;21.39;55.94
63582;BME280;49727;51.078;17.066;2023-06-19T22:38:03;100071.59;;;21.17;56.64
63582;BME280;49727;51.078;17.066;2023-06-19T22:53:03;100066.72;;;21.02;57.20
63582;BME280;49727;51.078;17.066;2023-06-19T23:08:04;100058.53;;;20.68;57.73
63582;BME280;49727;51.078;17.066;2023-06-19T23:23:04;100055.63;;;20.34;58.85
63582;BME280;49727;51.078;17.066;2023-06-19T23:38:05;100059.75;;;20.13;59.56
63582;BME280;49727;51.078;17.066;2023-06-19T23:53:05;100056.38;;;19.82;60.33
